Time;durP1;ratioP1;P1;durP2;ratioP2;P2;SDS_P1;SDS_P2;PMS_P1;PMS_P2;Temp;Humidity;BMP_temperature;BMP_pressure;BME280_temperature;BME280_humidity;BME280_pressure;Samples;Min_cycle;Max_cycle;Signal;HPM_P1;HPM_P2
2022/08/24 00:00:12;;;;;;;1999.90;999.90;;;;;;;;;;5045422;28;20464;-72
2022/08/24 00:02:41;;;;;;;1999.90;999.90;;;;;;;;;;5045238;28;20408;-73
2022/08/24 00:05:09;;;;;;;1999.90;999.90;;;;;;;;;;5052429;28;20379;-73
2022/08/24 00:07:41;;;;;;;1999.90;999.90;;;;;;;;;;5027401;28;20421;-73
2022/08/24 00:10:10;;;;;;;1999.90;999.90;;;;;;;;;;5028049;28;20384;-73
2022/08/24 00:12:38;;;;;;;1999.90;999.90;;;;;;;;;;5051897;28;20427;-72
2022/08/24 00:15:07;;;;;;;1999.90;999.90;;;;;;;;;;5044156;28;20405;-72
2022/08/24 00:17:36;;;;;;;1999.90;999.90;;;;;;;;;;5044268;28;20400;-73
2022/08/24 00:20:06;;;;;;;1999.90;999.90;;;;;;;;;;5050755;28;20411;-73
2022/08/24 00:22:33;;;;;;;1999.90;999.90;;;;;;;;;;5043764;28;20425;-73
2022/08/24 00:25:01;;;;;;;1999.90;999.90;;;;;;;;;;5045661;28;20407;-73
2022/08/24 00:27:29;;;;;;;1999.90;999.90;;;;;;;;;;5041629;28;20404;-73
2022/08/24 00:29:57;;;;;;;1999.90;999.90;;;;;;;;;;5027182;28;20402;-72
2022/08/24 00:32:24;;;;;;;1999.90;999.90;;;;;;;;;;5042812;28;20402;-72
2022/08/24 00:34:52;;;;;;;1999.90;999.90;;;;;;;;;;5051818;28;20419;-73
2022/08/24 00:37:27;;;;;;;1999.90;999.90;;;;;;;;;;5040567;28;20397;-73
2022/08/24 00:39:55;;;;;;;1999.90;999.90;;;;;;;;;;5043061;28;21012;-72
2022/08/24 00:42:23;;;;;;;1999.90;999.90;;;;;;;;;;5044769;28;20450;-72
2022/08/24 00:44:51;;;;;;;1999.90;999.90;;;;;;;;;;5045188;28;20393;-73
2022/08/24 00:47:21;;;;;;;1999.90;999.90;;;;;;;;;;5041295;28;20424;-73
2022/08/24 00:49:53;;;;;;;1999.90;999.90;;;;;;;;;;5041248;28;20917;-72
2022/08/24 00:52:23;;;;;;;1999.90;999.90;;;;;;;;;;5043240;28;20420;-73
2022/08/24 00:54:56;;;;;;;1999.90;999.90;;;;;;;;;;5042683;28;20387;-72
2022/08/24 00:57:27;;;;;;;1999.90;999.90;;;;;;;;;;5034179;28;20391;-72
2022/08/24 00:59:56;;;;;;;1999.90;999.90;;;;;;;;;;5033703;28;20406;-72
2022/08/24 01:02:26;;;;;;;1999.90;999.90;;;;;;;;;;5062320;28;20408;-72
2022/08/24 01:04:55;;;;;;;1999.90;999.90;;;;;;;;;;5042743;28;20530;-72
2022/08/24 01:07:23;;;;;;;1999.90;999.90;;;;;;;;;;5043290;28;20393;-72
2022/08/24 01:09:52;;;;;;;1999.90;999.90;;;;;;;;;;5050262;28;20482;-72
2022/08/24 01:12:22;;;;;;;1999.90;999.90;;;;;;;;;;5040052;28;20474;-72
2022/08/24 01:14:50;;;;;;;1999.90;999.90;;;;;;;;;;5043669;28;20410;-72
2022/08/24 01:20:08;;;;;;;1999.90;999.90;;;;;;;;;;5042937;28;21931;-72
2022/08/24 01:22:51;;;;;;;1999.90;999.90;;;;;;;;;;5043366;28;20913;-72
2022/08/24 01:25:21;;;;;;;1999.90;999.90;;;;;;;;;;5056021;28;20401;-72
2022/08/24 01:27:50;;;;;;;1999.90;999.90;;;;;;;;;;5044178;28;20391;-72
2022/08/24 01:30:18;;;;;;;1999.90;999.90;;;;;;;;;;5046038;28;21002;-72
2022/08/24 01:32:57;;;;;;;1999.90;999.90;;;;;;;;;;5046491;28;20412;-72
2022/08/24 01:35:25;;;;;;;1999.90;999.90;;;;;;;;;;5043188;28;20746;-71
2022/08/24 01:37:54;;;;;;;1999.90;999.90;;;;;;;;;;5037665;28;20393;-72
2022/08/24 01:40:25;;;;;;;1999.90;999.90;;;;;;;;;;5045273;28;20419;-73
2022/08/24 01:42:53;;;;;;;1999.90;999.90;;;;;;;;;;5044229;28;20416;-73
2022/08/24 01:45:21;;;;;;;1999.90;999.90;;;;;;;;;;5031024;28;20483;-72
2022/08/24 01:47:49;;;;;;;1999.90;999.90;;;;;;;;;;5046683;28;20455;-71
2022/08/24 01:50:17;;;;;;;1999.90;999.90;;;;;;;;;;5055153;28;20902;-72
2022/08/24 01:52:45;;;;;;;1999.90;999.90;;;;;;;;;;5032286;28;20409;-72
2022/08/24 01:55:34;;;;;;;1999.90;999.90;;;;;;;;;;5043971;28;20395;-73
2022/08/24 01:58:03;;;;;;;1999.90;999.90;;;;;;;;;;5053066;28;20482;-72
2022/08/24 02:00:31;;;;;;;1999.90;999.90;;;;;;;;;;5043657;28;20399;-72
2022/08/24 02:02:58;;;;;;;1999.90;999.90;;;;;;;;;;5044191;28;20413;-72
2022/08/24 02:05:27;;;;;;;1999.90;999.90;;;;;;;;;;5052413;28;21016;-72
2022/08/24 02:07:57;;;;;;;1999.90;999.90;;;;;;;;;;5028857;28;20433;-72
2022/08/24 02:10:26;;;;;;;1999.90;999.90;;;;;;;;;;5060893;28;20443;-73
2022/08/24 02:12:58;;;;;;;1999.90;999.90;;;;;;;;;;5046515;28;20427;-72
2022/08/24 02:15:27;;;;;;;1999.90;999.90;;;;;;;;;;5044500;28;20394;-73
2022/08/24 02:17:55;;;;;;;1999.90;999.90;;;;;;;;;;5027717;28;20419;-72
2022/08/24 02:20:24;;;;;;;1999.90;999.90;;;;;;;;;;5029674;28;20449;-72
2022/08/24 02:22:52;;;;;;;1999.90;999.90;;;;;;;;;;5045131;28;20430;-72
2022/08/24 02:25:21;;;;;;;1999.90;999.90;;;;;;;;;;5028559;28;20387;-73
2022/08/24 02:27:49;;;;;;;1999.90;999.90;;;;;;;;;;5049266;28;20414;-73
2022/08/24 02:30:18;;;;;;;1999.90;999.90;;;;;;;;;;5062912;28;20499;-72
2022/08/24 02:32:47;;;;;;;1999.90;999.90;;;;;;;;;;5051241;28;20518;-72
2022/08/24 02:35:14;;;;;;;1999.90;999.90;;;;;;;;;;5046834;28;20482;-72
2022/08/24 02:37:42;;;;;;;1999.90;999.90;;;;;;;;;;5043891;28;20459;-72
2022/08/24 02:40:13;;;;;;;1999.90;999.90;;;;;;;;;;5047941;28;20494;-72
2022/08/24 02:42:41;;;;;;;1999.90;999.90;;;;;;;;;;5046163;28;20586;-72
2022/08/24 02:45:10;;;;;;;1999.90;999.90;;;;;;;;;;5045211;28;20522;-72
2022/08/24 02:47:40;;;;;;;1999.90;999.90;;;;;;;;;;5052988;28;20415;-73
2022/08/24 02:50:09;;;;;;;1999.90;999.90;;;;;;;;;;5034436;28;20388;-72
2022/08/24 02:52:38;;;;;;;1999.90;999.90;;;;;;;;;;5045699;28;20399;-72
2022/08/24 02:55:08;;;;;;;1999.90;999.90;;;;;;;;;;5036531;28;20391;-72
2022/08/24 02:57:37;;;;;;;1999.90;999.90;;;;;;;;;;5035729;28;20421;-72
2022/08/24 03:00:07;;;;;;;1999.90;999.90;;;;;;;;;;5043585;28;20429;-72
2022/08/24 03:02:40;;;;;;;1999.90;999.90;;;;;;;;;;5052495;28;20630;-72
2022/08/24 03:05:08;;;;;;;1999.90;999.90;;;;;;;;;;5054728;28;20403;-72
2022/08/24 03:07:37;;;;;;;1999.90;999.90;;;;;;;;;;5050674;28;20876;-72
2022/08/24 03:10:05;;;;;;;1999.90;999.90;;;;;;;;;;5035950;28;20418;-72
2022/08/24 03:12:34;;;;;;;1999.90;999.90;;;;;;;;;;5050430;28;20406;-71
2022/08/24 03:15:02;;;;;;;1999.90;999.90;;;;;;;;;;5052454;28;20412;-72
2022/08/24 03:17:30;;;;;;;1999.90;999.90;;;;;;;;;;5044200;28;20429;-72
2022/08/24 03:19:59;;;;;;;1999.90;999.90;;;;;;;;;;5047547;28;20540;-73
2022/08/24 03:22:28;;;;;;;1999.90;999.90;;;;;;;;;;5043575;28;20746;-72
2022/08/24 03:24:56;;;;;;;1999.90;999.90;;;;;;;;;;5045708;28;20497;-72
2022/08/24 03:27:24;;;;;;;1999.90;999.90;;;;;;;;;;5026633;28;20423;-72
2022/08/24 03:29:52;;;;;;;1999.90;999.90;;;;;;;;;;5044989;28;20411;-73
2022/08/24 03:32:21;;;;;;;1999.90;999.90;;;;;;;;;;5028988;28;20409;-72
2022/08/24 03:34:49;;;;;;;1999.90;999.90;;;;;;;;;;5052996;28;20388;-72
2022/08/24 03:37:19;;;;;;;1999.90;999.90;;;;;;;;;;5028726;28;20488;-71
2022/08/24 03:39:48;;;;;;;1999.90;999.90;;;;;;;;;;5051837;28;20565;-72
2022/08/24 03:42:17;;;;;;;1999.90;999.90;;;;;;;;;;5046575;28;20406;-72
2022/08/24 03:44:45;;;;;;;1999.90;999.90;;;;;;;;;;5037361;28;20938;-72
2022/08/24 03:47:13;;;;;;;1999.90;999.90;;;;;;;;;;5034475;28;20410;-72
2022/08/24 03:49:41;;;;;;;1999.90;999.90;;;;;;;;;;5063188;28;20895;-72
2022/08/24 03:52:09;;;;;;;1999.90;999.90;;;;;;;;;;5058036;28;20421;-72
2022/08/24 03:54:38;;;;;;;1999.90;999.90;;;;;;;;;;5044281;28;21262;-72
2022/08/24 03:57:06;;;;;;;1999.90;999.90;;;;;;;;;;5042107;28;20396;-72
2022/08/24 03:59:34;;;;;;;1999.90;999.90;;;;;;;;;;5028438;28;20400;-72
2022/08/24 04:02:13;;;;;;;1999.90;999.90;;;;;;;;;;5051319;28;20418;-73
2022/08/24 04:04:41;;;;;;;1999.90;999.90;;;;;;;;;;5044743;28;20451;-72
2022/08/24 04:07:11;;;;;;;1999.90;999.90;;;;;;;;;;5048080;28;20400;-72
2022/08/24 04:09:40;;;;;;;1999.90;999.90;;;;;;;;;;5042838;28;20403;-72
2022/08/24 04:12:08;;;;;;;1999.90;999.90;;;;;;;;;;5026186;28;20459;-72
2022/08/24 04:14:36;;;;;;;1999.90;999.90;;;;;;;;;;5044764;28;20393;-71
2022/08/24 04:17:11;;;;;;;1999.90;999.90;;;;;;;;;;5029571;28;20411;-72
2022/08/24 04:19:56;;;;;;;1999.90;999.90;;;;;;;;;;5033829;28;21319;-76
2022/08/24 04:22:28;;;;;;;1999.90;999.90;;;;;;;;;;5050699;28;20413;-72
2022/08/24 04:24:57;;;;;;;1999.90;999.90;;;;;;;;;;5040902;28;20390;-71
2022/08/24 04:27:27;;;;;;;1999.90;999.90;;;;;;;;;;5049335;28;20495;-72
2022/08/24 04:29:56;;;;;;;1999.90;999.90;;;;;;;;;;5055162;28;20489;-72
2022/08/24 04:32:26;;;;;;;1999.90;999.90;;;;;;;;;;5048245;28;20706;-71
2022/08/24 04:34:56;;;;;;;1999.90;999.90;;;;;;;;;;5045571;28;20417;-72
2022/08/24 04:37:23;;;;;;;1999.90;999.90;;;;;;;;;;5028073;28;20415;-73
2022/08/24 04:39:58;;;;;;;1999.90;999.90;;;;;;;;;;5035707;28;20489;-72
2022/08/24 04:42:33;;;;;;;1999.90;999.90;;;;;;;;;;5041974;28;20411;-73
2022/08/24 04:45:01;;;;;;;1999.90;999.90;;;;;;;;;;5059062;28;21251;-71
2022/08/24 04:47:29;;;;;;;1999.90;999.90;;;;;;;;;;5044796;28;20442;-72
2022/08/24 04:49:59;;;;;;;1999.90;999.90;;;;;;;;;;5064595;28;20445;-72
2022/08/24 04:52:28;;;;;;;1999.90;999.90;;;;;;;;;;5030733;28;20508;-72
2022/08/24 04:54:57;;;;;;;1999.90;999.90;;;;;;;;;;5060960;28;20447;-73
2022/08/24 04:57:26;;;;;;;1999.90;999.90;;;;;;;;;;5045360;28;20706;-73
2022/08/24 04:59:56;;;;;;;1999.90;999.90;;;;;;;;;;5028307;28;20433;-73
2022/08/24 05:02:24;;;;;;;1999.90;999.90;;;;;;;;;;5059635;28;21832;-70
2022/08/24 05:04:54;;;;;;;1999.90;999.90;;;;;;;;;;5035333;28;20391;-71
2022/08/24 05:07:22;;;;;;;1999.90;999.90;;;;;;;;;;5043914;28;20426;-70
2022/08/24 05:09:49;;;;;;;1999.90;999.90;;;;;;;;;;5067037;28;20885;-70
2022/08/24 05:12:21;;;;;;;1999.90;999.90;;;;;;;;;;5051090;28;20467;-71
2022/08/24 05:14:58;;;;;;;1999.90;999.90;;;;;;;;;;5047706;28;20392;-70
2022/08/24 05:17:26;;;;;;;1999.90;999.90;;;;;;;;;;5048353;28;20488;-70
2022/08/24 05:19:54;;;;;;;1999.90;999.90;;;;;;;;;;5051754;28;20917;-70
2022/08/24 05:22:22;;;;;;;1999.90;999.90;;;;;;;;;;5048929;28;20502;-70
2022/08/24 05:24:53;;;;;;;1999.90;999.90;;;;;;;;;;5041547;28;21085;-70
2022/08/24 05:27:24;;;;;;;1999.90;999.90;;;;;;;;;;5047051;28;20463;-70
2022/08/24 05:29:52;;;;;;;1999.90;999.90;;;;;;;;;;5047989;28;20418;-71
2022/08/24 05:32:20;;;;;;;1999.90;999.90;;;;;;;;;;5066081;28;20398;-71
2022/08/24 05:34:49;;;;;;;1999.90;999.90;;;;;;;;;;5034000;28;20879;-70
2022/08/24 05:37:17;;;;;;;1999.90;999.90;;;;;;;;;;5059746;28;20463;-70
2022/08/24 05:40:04;;;;;;;1999.90;999.90;;;;;;;;;;5045476;28;20822;-71
2022/08/24 05:42:35;;;;;;;1999.90;999.90;;;;;;;;;;5033574;28;20390;-70
2022/08/24 05:45:03;;;;;;;1999.90;999.90;;;;;;;;;;5051301;28;20476;-70
2022/08/24 05:47:31;;;;;;;1999.90;999.90;;;;;;;;;;5047800;28;20408;-70
2022/08/24 05:50:08;;;;;;;1999.90;999.90;;;;;;;;;;5060232;28;20550;-70
2022/08/24 05:52:35;;;;;;;1999.90;999.90;;;;;;;;;;5052452;28;20434;-70
2022/08/24 05:55:04;;;;;;;1999.90;999.90;;;;;;;;;;5060759;28;20855;-71
2022/08/24 05:57:33;;;;;;;1999.90;999.90;;;;;;;;;;5060257;28;20384;-70
2022/08/24 06:00:17;;;;;;;1999.90;999.90;;;;;;;;;;5061821;28;20399;-71
2022/08/24 06:02:51;;;;;;;1999.90;999.90;;;;;;;;;;5046534;28;20429;-70
2022/08/24 06:05:21;;;;;;;1999.90;999.90;;;;;;;;;;5046827;28;20489;-70
2022/08/24 06:07:49;;;;;;;1999.90;999.90;;;;;;;;;;5036320;28;20382;-70
2022/08/24 06:10:17;;;;;;;1999.90;999.90;;;;;;;;;;5032723;28;20404;-71
2022/08/24 06:13:04;;;;;;;1999.90;999.90;;;;;;;;;;5033005;28;20467;-71
2022/08/24 06:15:33;;;;;;;1999.90;999.90;;;;;;;;;;5056089;28;20553;-71
2022/08/24 06:18:01;;;;;;;1999.90;999.90;;;;;;;;;;5056831;28;20435;-79
2022/08/24 06:20:30;;;;;;;1999.90;999.90;;;;;;;;;;5043713;28;20379;-77
2022/08/24 06:22:58;;;;;;;1999.90;999.90;;;;;;;;;;5037476;28;20384;-78
2022/08/24 06:28:18;;;;;;;1999.90;999.90;;;;;;;;;;5030967;28;21063;-77
2022/08/24 06:30:48;;;;;;;1999.90;999.90;;;;;;;;;;5034088;28;20399;-78
2022/08/24 06:33:24;;;;;;;1999.90;999.90;;;;;;;;;;5040745;28;20982;-77
2022/08/24 06:35:54;;;;;;;1999.90;999.90;;;;;;;;;;5055881;28;20379;-77
2022/08/24 06:38:23;;;;;;;1999.90;999.90;;;;;;;;;;5030262;28;20421;-77
2022/08/24 06:40:53;;;;;;;1999.90;999.90;;;;;;;;;;5036061;28;20409;-77
2022/08/24 06:43:23;;;;;;;1999.90;999.90;;;;;;;;;;5049075;28;20842;-77
2022/08/24 06:45:54;;;;;;;1999.90;999.90;;;;;;;;;;5033237;28;20430;-77
2022/08/24 06:48:29;;;;;;;1999.90;999.90;;;;;;;;;;5062758;28;20443;-76
2022/08/24 06:50:57;;;;;;;1999.90;999.90;;;;;;;;;;5048361;28;20408;-77
2022/08/24 06:53:25;;;;;;;1999.90;999.90;;;;;;;;;;5035437;28;20428;-74
2022/08/24 06:55:56;;;;;;;1999.90;999.90;;;;;;;;;;5048645;28;20403;-75
2022/08/24 06:58:25;;;;;;;1999.90;999.90;;;;;;;;;;5046945;28;20420;-77
2022/08/24 07:00:54;;;;;;;1999.90;999.90;;;;;;;;;;5058811;28;20479;-76
2022/08/24 07:03:23;;;;;;;1999.90;999.90;;;;;;;;;;5044463;28;21051;-76
2022/08/24 07:05:57;;;;;;;1999.90;999.90;;;;;;;;;;5032324;28;20905;-76
2022/08/24 07:08:37;;;;;;;1999.90;999.90;;;;;;;;;;5046453;28;20413;-76
2022/08/24 07:11:05;;;;;;;1999.90;999.90;;;;;;;;;;5032569;28;20772;-76
2022/08/24 07:13:33;;;;;;;1999.90;999.90;;;;;;;;;;5062571;28;20462;-76
2022/08/24 07:16:03;;;;;;;1999.90;999.90;;;;;;;;;;5050375;28;20430;-76
2022/08/24 07:18:33;;;;;;;1999.90;999.90;;;;;;;;;;5050331;28;20409;-77
2022/08/24 07:21:02;;;;;;;1999.90;999.90;;;;;;;;;;5055604;28;20414;-76
2022/08/24 07:23:40;;;;;;;1999.90;999.90;;;;;;;;;;5042984;28;20428;-76
2022/08/24 07:26:13;;;;;;;1999.90;999.90;;;;;;;;;;5042185;28;20359;-76
2022/08/24 07:28:48;;;;;;;1999.90;999.90;;;;;;;;;;5043436;28;20836;-75
2022/08/24 07:31:19;;;;;;;1999.90;999.90;;;;;;;;;;5053837;28;20774;-75
2022/08/24 07:34:02;;;;;;;1999.90;999.90;;;;;;;;;;5050023;28;20573;-76
2022/08/24 07:36:30;;;;;;;1999.90;999.90;;;;;;;;;;5052271;28;20394;-75
2022/08/24 07:38:59;;;;;;;1999.90;999.90;;;;;;;;;;5060389;28;20410;-76
2022/08/24 07:41:28;;;;;;;1999.90;999.90;;;;;;;;;;5066519;28;20415;-76
2022/08/24 07:44:18;;;;;;;1999.90;999.90;;;;;;;;;;5043323;28;20410;-76
2022/08/24 07:46:48;;;;;;;1999.90;999.90;;;;;;;;;;5049596;28;20389;-76
2022/08/24 07:49:17;;;;;;;1999.90;999.90;;;;;;;;;;5060792;28;20420;-77
2022/08/24 07:52:05;;;;;;;1999.90;999.90;;;;;;;;;;5046664;28;20453;-77
2022/08/24 07:54:34;;;;;;;1999.90;999.90;;;;;;;;;;5043524;28;20936;-75
2022/08/24 07:57:06;;;;;;;1999.90;999.90;;;;;;;;;;5043192;28;32152;-76
2022/08/24 07:59:34;;;;;;;1999.90;999.90;;;;;;;;;;5058829;28;20445;-76
2022/08/24 08:02:04;;;;;;;1999.90;999.90;;;;;;;;;;5046592;28;20427;-76
2022/08/24 08:04:32;;;;;;;1999.90;999.90;;;;;;;;;;5064036;28;20418;-76
2022/08/24 08:07:00;;;;;;;1999.90;999.90;;;;;;;;;;5032449;28;20764;-76
2022/08/24 08:09:31;;;;;;;1999.90;999.90;;;;;;;;;;5057349;28;20478;-75
2022/08/24 08:12:00;;;;;;;1999.90;999.90;;;;;;;;;;5070038;28;20466;-76
2022/08/24 08:14:29;;;;;;;1999.90;999.90;;;;;;;;;;5049262;28;20426;-77
2022/08/24 08:16:56;;;;;;;1999.90;999.90;;;;;;;;;;5047320;28;20395;-76
2022/08/24 08:19:25;;;;;;;1999.90;999.90;;;;;;;;;;5030595;28;20409;-76
2022/08/24 08:25:01;;;;;;;1999.90;999.90;;;;;;;;;;5048673;28;20408;-78
2022/08/24 08:27:30;;;;;;;1999.90;999.90;;;;;;;;;;5054124;28;20950;-77
2022/08/24 08:29:58;;;;;;;1999.90;999.90;;;;;;;;;;5033617;28;20532;-77
2022/08/24 08:32:25;;;;;;;1999.90;999.90;;;;;;;;;;5040850;28;20410;-77
2022/08/24 08:34:56;;;;;;;1999.90;999.90;;;;;;;;;;5047460;28;20426;-77
2022/08/24 08:37:29;;;;;;;1999.90;999.90;;;;;;;;;;5046893;28;20938;-77
2022/08/24 08:39:58;;;;;;;1999.90;999.90;;;;;;;;;;5031335;28;20419;-76
2022/08/24 08:42:32;;;;;;;1999.90;999.90;;;;;;;;;;5040010;28;20399;-76
2022/08/24 08:45:05;;;;;;;1999.90;999.90;;;;;;;;;;5041035;28;21696;-76
2022/08/24 08:47:47;;;;;;;1999.90;999.90;;;;;;;;;;5051854;28;20944;-76
2022/08/24 08:50:21;;;;;;;1999.90;999.90;;;;;;;;;;5046386;28;20391;-76
2022/08/24 08:53:08;;;;;;;1999.90;999.90;;;;;;;;;;5041406;28;21154;-77
2022/08/24 08:55:39;;;;;;;1999.90;999.90;;;;;;;;;;5031063;28;20416;-77
2022/08/24 08:58:16;;;;;;;1999.90;999.90;;;;;;;;;;5043941;28;20412;-76
2022/08/24 09:00:55;;;;;;;1999.90;999.90;;;;;;;;;;5052421;28;21214;-76
2022/08/24 09:03:37;;;;;;;1999.90;999.90;;;;;;;;;;5049569;28;20954;-76
2022/08/24 09:06:45;;;;;;;1999.90;999.90;;;;;;;;;;5039449;28;20410;-76
2022/08/24 09:09:23;;;;;;;1999.90;999.90;;;;;;;;;;5050729;28;20482;-76
2022/08/24 09:11:57;;;;;;;1999.90;999.90;;;;;;;;;;5036039;28;20411;-76
2022/08/24 09:14:38;;;;;;;1999.90;999.90;;;;;;;;;;5047185;28;20412;-77
2022/08/24 09:17:15;;;;;;;1999.90;999.90;;;;;;;;;;5033649;28;20880;-76
2022/08/24 09:19:56;;;;;;;1999.90;999.90;;;;;;;;;;5053563;28;20406;-78
2022/08/24 09:22:28;;;;;;;1999.90;999.90;;;;;;;;;;5054276;28;20394;-77
2022/08/24 09:25:05;;;;;;;1999.90;999.90;;;;;;;;;;5053820;28;20408;-76
2022/08/24 09:27:43;;;;;;;1999.90;999.90;;;;;;;;;;5034721;28;20405;-75
2022/08/24 09:30:18;;;;;;;1999.90;999.90;;;;;;;;;;5056495;28;21466;-77
2022/08/24 09:32:56;;;;;;;1999.90;999.90;;;;;;;;;;5049852;28;20411;-74
2022/08/24 09:35:31;;;;;;;1999.90;999.90;;;;;;;;;;5052431;28;20442;-74
2022/08/24 09:38:05;;;;;;;1999.90;999.90;;;;;;;;;;5054621;28;20394;-77
2022/08/24 09:40:37;;;;;;;1999.90;999.90;;;;;;;;;;5048673;28;20774;-77
2022/08/24 09:43:19;;;;;;;1999.90;999.90;;;;;;;;;;5052031;28;20884;-77
2022/08/24 09:45:58;;;;;;;1999.90;999.90;;;;;;;;;;5047882;28;21704;-77
2022/08/24 09:48:35;;;;;;;1999.90;999.90;;;;;;;;;;5045064;28;20399;-77
2022/08/24 09:51:21;;;;;;;1999.90;999.90;;;;;;;;;;5049513;28;20387;-76
2022/08/24 09:54:10;;;;;;;1999.90;999.90;;;;;;;;;;5051074;28;20943;-76
2022/08/24 09:56:46;;;;;;;1999.90;999.90;;;;;;;;;;5046963;28;20952;-76
2022/08/24 09:59:44;;;;;;;1999.90;999.90;;;;;;;;;;5048291;28;20424;-77
2022/08/24 10:02:27;;;;;;;1999.90;999.90;;;;;;;;;;4993666;28;20383;-76
2022/08/24 10:05:11;;;;;;;1999.90;999.90;;;;;;;;;;5045240;28;21017;-77
2022/08/24 10:10:47;;;;;;;1999.90;999.90;;;;;;;;;;5045570;28;20448;-79
2022/08/24 10:13:22;;;;;;;1999.90;999.90;;;;;;;;;;5047759;28;20392;-76
2022/08/24 10:16:06;;;;;;;1999.90;999.90;;;;;;;;;;5033302;28;21560;-76
2022/08/24 10:21:45;;;;;;;1999.90;999.90;;;;;;;;;;5047577;28;20415;-76
2022/08/24 10:24:32;;;;;;;1999.90;999.90;;;;;;;;;;5047139;28;22567;-77
2022/08/24 10:27:17;;;;;;;1999.90;999.90;;;;;;;;;;5048697;28;20503;-77
2022/08/24 10:30:23;;;;;;;;;;;;;;;;;;;;;
2022/08/24 10:33:04;;;;;;;1999.90;999.90;;;;;;;;;;5037246;28;20910;-76
2022/08/24 10:35:52;;;;;;;1999.90;999.90;;;;;;;;;;5047116;28;20458;-76
2022/08/24 10:41:46;;;;;;;1999.90;999.90;;;;;;;;;;5045230;28;20408;-77
2022/08/24 10:44:27;;;;;;;1999.90;999.90;;;;;;;;;;5044424;28;20884;-78
2022/08/24 10:46:59;;;;;;;1999.90;999.90;;;;;;;;;;5043840;28;20470;-76
2022/08/24 10:49:40;;;;;;;1999.90;999.90;;;;;;;;;;5046045;28;20396;-76
2022/08/24 10:52:32;;;;;;;1999.90;999.90;;;;;;;;;;5046652;28;20409;-76
2022/08/24 10:55:12;;;;;;;1999.90;999.90;;;;;;;;;;4971475;28;20423;-77
2022/08/24 10:57:44;;;;;;;1999.90;999.90;;;;;;;;;;5043200;28;20393;-78
2022/08/24 11:00:14;;;;;;;1999.90;999.90;;;;;;;;;;5043156;28;20423;-77
2022/08/24 11:03:04;;;;;;;1999.90;999.90;;;;;;;;;;5044800;28;20440;-77
2022/08/24 11:05:36;;;;;;;1999.90;999.90;;;;;;;;;;5056448;28;20422;-77
2022/08/24 11:08:09;;;;;;;1999.90;999.90;;;;;;;;;;5046717;28;20560;-77
2022/08/24 11:10:38;;;;;;;1999.90;999.90;;;;;;;;;;5046361;28;20397;-76
2022/08/24 11:13:20;;;;;;;1999.90;999.90;;;;;;;;;;5049208;28;20399;-76
2022/08/24 11:15:50;;;;;;;1999.90;999.90;;;;;;;;;;5045070;28;20402;-77
2022/08/24 11:18:19;;;;;;;1999.90;999.90;;;;;;;;;;5043950;28;20422;-76
2022/08/24 11:20:49;;;;;;;1999.90;999.90;;;;;;;;;;5043079;28;20787;-76
2022/08/24 11:23:19;;;;;;;1999.90;999.90;;;;;;;;;;5042708;28;20403;-76
2022/08/24 11:25:56;;;;;;;1999.90;999.90;;;;;;;;;;5046294;28;20464;-76
2022/08/24 11:28:29;;;;;;;1999.90;999.90;;;;;;;;;;5045319;28;20906;-76
2022/08/24 11:30:57;;;;;;;1999.90;999.90;;;;;;;;;;5042330;28;20398;-76
2022/08/24 11:33:28;;;;;;;1999.90;999.90;;;;;;;;;;5044680;28;21183;-76
2022/08/24 11:35:56;;;;;;;1999.90;999.90;;;;;;;;;;5045692;28;20399;-76
2022/08/24 11:38:26;;;;;;;1999.90;999.90;;;;;;;;;;5044043;28;20775;-76
2022/08/24 11:40:56;;;;;;;1999.90;999.90;;;;;;;;;;5042542;28;20462;-76
2022/08/24 11:43:31;;;;;;;1999.90;999.90;;;;;;;;;;5045254;28;20395;-77
2022/08/24 11:46:07;;;;;;;1999.90;999.90;;;;;;;;;;5045814;28;20416;-76
2022/08/24 11:48:43;;;;;;;1999.90;999.90;;;;;;;;;;5048100;28;20390;-76
2022/08/24 11:51:13;;;;;;;1999.90;999.90;;;;;;;;;;5044062;28;20485;-77
2022/08/24 11:53:46;;;;;;;1999.90;999.90;;;;;;;;;;5026395;28;20486;-76
2022/08/24 11:56:19;;;;;;;1999.90;999.90;;;;;;;;;;5044545;28;20426;-76
2022/08/24 11:58:55;;;;;;;1999.90;999.90;;;;;;;;;;5039156;28;20415;-75
2022/08/24 12:01:25;;;;;;;1999.90;999.90;;;;;;;;;;5049756;28;20399;-76
2022/08/24 12:04:04;;;;;;;1999.90;999.90;;;;;;;;;;5044215;28;20444;-76
2022/08/24 12:06:38;;;;;;;1999.90;999.90;;;;;;;;;;5043530;28;21052;-76
2022/08/24 12:09:12;;;;;;;1999.90;999.90;;;;;;;;;;5044677;28;21311;-76
2022/08/24 12:11:44;;;;;;;1999.90;999.90;;;;;;;;;;5047798;28;20418;-76
2022/08/24 12:14:15;;;;;;;1999.90;999.90;;;;;;;;;;5060371;28;20390;-78
2022/08/24 12:16:46;;;;;;;1999.90;999.90;;;;;;;;;;5045796;28;20928;-77
2022/08/24 12:19:19;;;;;;;1999.90;999.90;;;;;;;;;;5045546;28;20390;-77
2022/08/24 12:21:49;;;;;;;1999.90;999.90;;;;;;;;;;5054162;28;20398;-77
2022/08/24 12:24:20;;;;;;;1999.90;999.90;;;;;;;;;;5058501;28;20563;-78
2022/08/24 12:26:49;;;;;;;1999.90;999.90;;;;;;;;;;5043316;28;20399;-76
2022/08/24 12:29:21;;;;;;;1999.90;999.90;;;;;;;;;;5046952;28;20403;-77
2022/08/24 12:31:50;;;;;;;1999.90;999.90;;;;;;;;;;5044804;28;20422;-76
2022/08/24 12:34:21;;;;;;;1999.90;999.90;;;;;;;;;;5048084;28;21225;-78
2022/08/24 12:36:53;;;;;;;1999.90;999.90;;;;;;;;;;5053700;28;20416;-77
2022/08/24 12:39:24;;;;;;;1999.90;999.90;;;;;;;;;;5050333;28;20486;-78
2022/08/24 12:41:57;;;;;;;1999.90;999.90;;;;;;;;;;5047895;28;21691;-77
2022/08/24 12:44:33;;;;;;;1999.90;999.90;;;;;;;;;;5046508;28;20417;-77
2022/08/24 12:47:03;;;;;;;1999.90;999.90;;;;;;;;;;5051558;28;20415;-78
2022/08/24 12:49:35;;;;;;;1999.90;999.90;;;;;;;;;;5050513;28;20393;-78
2022/08/24 12:52:15;;;;;;;1999.90;999.90;;;;;;;;;;5044061;28;21748;-76
2022/08/24 12:55:07;;;;;;;1999.90;999.90;;;;;;;;;;5043728;28;20557;-77
2022/08/24 12:57:42;;;;;;;1999.90;999.90;;;;;;;;;;5045395;28;20404;-76
2022/08/24 13:00:24;;;;;;;1999.90;999.90;;;;;;;;;;5043580;28;20763;-76
2022/08/24 13:02:57;;;;;;;1999.90;999.90;;;;;;;;;;5042086;28;20411;-76
2022/08/24 13:05:38;;;;;;;1999.90;999.90;;;;;;;;;;5045609;28;20658;-74
2022/08/24 13:08:14;;;;;;;1999.90;999.90;;;;;;;;;;5049169;28;20404;-75
2022/08/24 13:10:44;;;;;;;1999.90;999.90;;;;;;;;;;5045272;28;20398;-75
2022/08/24 13:13:15;;;;;;;1999.90;999.90;;;;;;;;;;5048886;28;20406;-75
2022/08/24 13:15:50;;;;;;;1999.90;999.90;;;;;;;;;;5045941;28;20414;-75
2022/08/24 13:18:45;;;;;;;1999.90;999.90;;;;;;;;;;5043933;28;20404;-76
2022/08/24 13:21:34;;;;;;;1999.90;999.90;;;;;;;;;;5044581;28;20403;-72
2022/08/24 13:24:20;;;;;;;1999.90;999.90;;;;;;;;;;5046547;28;20489;-72
2022/08/24 13:26:49;;;;;;;1999.90;999.90;;;;;;;;;;5049586;28;20416;-72
2022/08/24 13:29:17;;;;;;;1999.90;999.90;;;;;;;;;;5047061;28;20416;-74
2022/08/24 13:31:53;;;;;;;1999.90;999.90;;;;;;;;;;5050128;28;20411;-74
2022/08/24 13:34:38;;;;;;;1999.90;999.90;;;;;;;;;;5048194;28;20499;-72
2022/08/24 13:37:14;;;;;;;1999.90;999.90;;;;;;;;;;5062927;28;20439;-72
2022/08/24 13:39:49;;;;;;;1999.90;999.90;;;;;;;;;;5045539;28;20396;-73
2022/08/24 13:42:29;;;;;;;1999.90;999.90;;;;;;;;;;5048907;28;20403;-74
2022/08/24 13:45:11;;;;;;;1999.90;999.90;;;;;;;;;;5050705;28;20423;-76
2022/08/24 13:47:48;;;;;;;1999.90;999.90;;;;;;;;;;5043672;28;20569;-75
2022/08/24 13:50:29;;;;;;;1999.90;999.90;;;;;;;;;;5045394;28;20411;-75
2022/08/24 13:53:05;;;;;;;1999.90;999.90;;;;;;;;;;5052358;28;20388;-75
2022/08/24 13:55:39;;;;;;;1999.90;999.90;;;;;;;;;;5053377;28;20395;-73
2022/08/24 13:58:15;;;;;;;1999.90;999.90;;;;;;;;;;5046218;28;20480;-74
2022/08/24 14:00:45;;;;;;;1999.90;999.90;;;;;;;;;;5060566;28;20440;-75
2022/08/24 14:03:31;;;;;;;1999.90;999.90;;;;;;;;;;5053607;28;21177;-75
2022/08/24 14:06:04;;;;;;;1999.90;999.90;;;;;;;;;;5049625;28;20392;-73
2022/08/24 14:08:38;;;;;;;1999.90;999.90;;;;;;;;;;5051989;28;20388;-73
2022/08/24 14:11:08;;;;;;;1999.90;999.90;;;;;;;;;;5049204;28;20754;-73
2022/08/24 14:13:46;;;;;;;1999.90;999.90;;;;;;;;;;5046651;28;20403;-73
2022/08/24 14:19:12;;;;;;;1999.90;999.90;;;;;;;;;;5051394;28;20387;-73
2022/08/24 14:21:44;;;;;;;1999.90;999.90;;;;;;;;;;5050366;28;20406;-72
2022/08/24 14:24:23;;;;;;;1999.90;999.90;;;;;;;;;;5050804;28;20901;-74
2022/08/24 14:27:02;;;;;;;1999.90;999.90;;;;;;;;;;5049611;28;20400;-74
2022/08/24 14:29:35;;;;;;;1999.90;999.90;;;;;;;;;;5058486;28;20390;-77
2022/08/24 14:32:34;;;;;;;1999.90;999.90;;;;;;;;;;5058734;28;20527;-76